createdAt,value
2018-05-14T00:00:27.045Z,19.10
2018-05-14T00:03:00.916Z,18.52
2018-05-14T00:05:34.523Z,16.83
2018-05-14T00:08:08.216Z,18.23
2018-05-14T00:10:43.552Z,18.30
2018-05-14T00:13:17.351Z,20.27
2018-05-14T00:15:51.168Z,17.12
2018-05-14T00:18:25.000Z,19.58
2018-05-14T00:20:58.842Z,17.98
2018-05-14T00:23:32.649Z,18.23
2018-05-14T00:26:06.468Z,15.50
2018-05-14T00:28:40.836Z,18.33
2018-05-14T00:31:14.561Z,18.87
2018-05-14T00:33:48.374Z,17.65
2018-05-14T00:36:22.158Z,20.35
2018-05-14T00:38:56.725Z,18.73
2018-05-14T00:41:30.435Z,19.55
2018-05-14T00:44:04.088Z,19.50
2018-05-14T00:46:37.868Z,18.90
2018-05-14T00:49:11.668Z,19.00
2018-05-14T00:51:45.427Z,18.27
2018-05-14T00:54:20.001Z,15.85
2018-05-14T00:56:53.617Z,23.05
2018-05-14T00:59:28.202Z,19.95
2018-05-14T01:02:01.928Z,22.87
2018-05-14T01:04:35.704Z,22.83
2018-05-14T01:07:09.789Z,26.27
2018-05-14T01:09:43.665Z,27.45
2018-05-14T01:12:18.239Z,28.62
2018-05-14T01:14:51.869Z,31.45
2018-05-14T01:17:25.588Z,32.20
2018-05-14T01:19:59.454Z,29.08
2018-05-14T01:22:33.294Z,30.55
2018-05-14T01:25:07.100Z,27.58
2018-05-14T01:27:40.906Z,34.08
2018-05-14T01:30:14.680Z,30.17
2018-05-14T01:32:48.488Z,30.70
2018-05-14T01:35:22.256Z,28.80
2018-05-14T01:37:55.984Z,31.98
2018-05-14T01:40:29.785Z,33.00
2018-05-14T01:43:04.434Z,35.28
2018-05-14T01:45:38.263Z,33.65
2018-05-14T01:48:11.917Z,35.03
2018-05-14T01:50:46.464Z,33.92
2018-05-14T01:53:20.145Z,29.42
2018-05-14T01:55:54.003Z,32.47
2018-05-14T01:58:29.584Z,31.73
2018-05-14T02:01:03.312Z,31.35
2018-05-14T02:03:36.954Z,33.17
2018-05-14T02:06:11.463Z,31.00
2018-05-14T02:08:46.093Z,30.00
2018-05-14T02:11:20.584Z,30.95
2018-05-14T02:13:54.431Z,25.02
2018-05-14T02:16:28.181Z,25.23
2018-05-14T02:19:02.060Z,27.27
2018-05-14T02:21:35.712Z,26.52
2018-05-14T02:24:10.243Z,26.20
2018-05-14T02:26:44.065Z,26.58
2018-05-14T02:29:18.445Z,28.70
2018-05-14T02:31:52.788Z,29.87
2018-05-14T02:34:26.631Z,29.48
2018-05-14T02:37:00.276Z,29.40
2018-05-14T02:39:34.015Z,24.55
2018-05-14T02:42:08.436Z,21.90
2018-05-14T02:44:42.204Z,26.02
2018-05-14T02:47:16.786Z,25.15
2018-05-14T02:49:51.353Z,22.87
2018-05-14T02:52:25.919Z,20.95
2018-05-14T02:55:00.494Z,22.42
2018-05-14T02:57:34.254Z,21.83
2018-05-14T03:00:08.075Z,23.48
2018-05-14T03:02:41.949Z,20.92
2018-05-14T03:05:16.577Z,20.92
2018-05-14T03:07:50.306Z,18.05
2018-05-14T03:10:24.121Z,20.48
2018-05-14T03:12:57.879Z,18.48
2018-05-14T03:15:31.588Z,19.50
2018-05-14T03:18:06.124Z,22.33
2018-05-14T03:20:39.834Z,18.12
2018-05-14T03:23:13.660Z,22.40
2018-05-14T03:25:47.452Z,22.17
2018-05-14T03:28:21.236Z,25.23
2018-05-14T03:30:55.728Z,20.90
2018-05-14T03:33:29.333Z,20.17
2018-05-14T03:36:03.202Z,19.83
2018-05-14T03:38:36.883Z,18.87
2018-05-14T03:41:11.472Z,21.33
2018-05-14T03:43:46.053Z,16.65
2018-05-14T03:46:19.697Z,15.63
2018-05-14T03:48:53.458Z,16.05
2018-05-14T03:51:27.109Z,17.92
2018-05-14T03:54:00.969Z,21.35
2018-05-14T03:56:35.547Z,14.10
2018-05-14T03:59:21.371Z,14.50
2018-05-14T04:15:23.958Z,15.60
2018-05-14T04:17:57.572Z,15.10
2018-05-14T04:20:31.944Z,17.20
2018-05-14T04:23:05.815Z,23.73
2018-05-14T04:25:40.264Z,15.52
2018-05-14T04:28:14.142Z,18.23
2018-05-14T04:30:47.889Z,18.00
2018-05-14T04:33:21.568Z,14.30
2018-05-14T04:35:55.212Z,19.05
2018-05-14T04:38:29.013Z,14.68
2018-05-14T04:41:03.625Z,18.40
2018-05-14T04:43:37.472Z,13.05
2018-05-14T04:46:11.880Z,14.68
2018-05-14T04:48:45.601Z,14.98
2018-05-14T04:51:19.457Z,10.75
2018-05-14T04:53:53.171Z,10.85
2018-05-14T04:56:27.054Z,10.70
2018-05-14T04:59:00.842Z,12.15
2018-05-14T05:01:35.745Z,10.95
2018-05-14T05:04:10.237Z,14.25
2018-05-14T05:06:44.200Z,12.90
2018-05-14T05:09:17.936Z,14.23
2018-05-14T05:11:52.580Z,12.85
2018-05-14T05:14:26.220Z,11.25
2018-05-14T05:17:00.158Z,10.45
2018-05-14T05:19:34.711Z,11.85
2018-05-14T05:22:08.463Z,13.50
2018-05-14T05:24:42.538Z,14.18
2018-05-14T05:27:16.163Z,11.45
2018-05-14T05:29:49.838Z,12.63
2018-05-14T05:32:24.340Z,28.23
2018-05-14T05:34:58.184Z,11.18
2018-05-14T05:37:32.091Z,10.98
2018-05-14T05:40:05.930Z,11.38
2018-05-14T05:42:40.394Z,14.50
2018-05-14T05:45:14.299Z,14.23
2018-05-14T05:47:48.082Z,14.02
2018-05-14T05:50:22.639Z,14.20
2018-05-14T05:52:56.446Z,14.25
2018-05-14T05:55:30.225Z,16.95
2018-05-14T05:58:04.742Z,14.63
2018-05-14T06:00:38.511Z,15.20
2018-05-14T06:03:12.183Z,15.00
2018-05-14T06:05:46.062Z,13.75
2018-05-14T06:08:19.768Z,12.45
2018-05-14T06:10:53.544Z,15.88
2018-05-14T06:13:27.386Z,14.48
2018-05-14T06:16:01.928Z,11.10
2018-05-14T06:18:35.706Z,14.43
2018-05-14T06:21:09.458Z,15.45
2018-05-14T06:23:43.192Z,11.82
2018-05-14T06:26:16.837Z,14.93
2018-05-14T06:28:50.632Z,13.40
2018-05-14T06:31:24.465Z,11.60
2018-05-14T06:33:58.345Z,10.90
2018-05-14T06:36:32.029Z,10.32
2018-05-14T06:39:05.854Z,10.73
2018-05-14T06:41:39.721Z,9.52
2018-05-14T06:44:14.273Z,10.77
2018-05-14T06:46:48.219Z,15.43
2018-05-14T06:49:21.785Z,15.40
2018-05-14T06:51:56.155Z,14.95
2018-05-14T06:54:30.662Z,12.68
2018-05-14T06:57:04.444Z,13.05
2018-05-14T06:59:38.179Z,9.57
2018-05-14T07:02:11.924Z,16.92
2018-05-14T07:04:45.696Z,13.82
2018-05-14T07:07:19.459Z,13.40
2018-05-14T07:09:53.992Z,20.65
2018-05-14T10:58:05.859Z,22.83
2018-05-14T11:00:39.580Z,23.15
2018-05-14T11:03:14.054Z,21.55
2018-05-14T11:05:47.857Z,25.37
2018-05-14T11:08:21.683Z,22.87
2018-05-14T11:10:55.604Z,22.17
2018-05-14T11:13:29.545Z,23.05
2018-05-14T11:16:04.695Z,20.80
2018-05-14T11:18:38.625Z,22.98
2018-05-14T11:21:12.406Z,21.33
2018-05-14T11:23:46.280Z,28.75
2018-05-14T11:26:19.998Z,25.52
2018-05-14T11:28:53.772Z,23.20
2018-05-14T11:31:27.627Z,24.70
2018-05-14T11:34:02.180Z,23.40
2018-05-14T11:36:35.886Z,27.62
2018-05-14T11:39:09.637Z,24.75
2018-05-14T11:41:44.223Z,24.37
2018-05-14T11:44:17.873Z,28.77
2018-05-14T11:46:51.520Z,25.40
2018-05-14T11:49:25.126Z,25.10
2018-05-14T11:52:02.212Z,31.10
2018-05-14T11:54:35.935Z,26.40
2018-05-14T11:57:09.680Z,26.35
2018-05-14T11:59:43.500Z,26.37
2018-05-14T12:02:18.952Z,23.52
2018-05-14T12:04:52.744Z,24.50
2018-05-14T12:07:26.513Z,25.60
2018-05-14T12:10:01.153Z,25.17
2018-05-14T12:12:34.820Z,23.10
2018-05-14T12:15:08.595Z,22.95
2018-05-14T12:17:42.452Z,26.40
2018-05-14T12:20:16.240Z,24.42
2018-05-14T12:22:50.027Z,25.45
2018-05-14T12:25:23.832Z,23.52
2018-05-14T12:27:57.625Z,24.50
2018-05-14T12:30:35.983Z,23.60
2018-05-14T12:33:09.981Z,23.40
2018-05-14T12:35:44.603Z,24.85
2018-05-14T12:38:21.271Z,26.12
2018-05-14T12:40:54.948Z,25.27
2018-05-14T12:43:28.796Z,25.25
2018-05-14T12:46:02.668Z,25.80
2018-05-14T12:48:37.159Z,25.90
2018-05-14T12:51:13.057Z,33.15
2018-05-14T12:53:47.544Z,23.12
2018-05-14T12:56:21.400Z,24.60
2018-05-14T12:58:55.152Z,25.10
2018-05-14T13:01:29.752Z,27.10
2018-05-14T13:04:04.217Z,24.33
2018-05-14T13:06:37.925Z,26.45
2018-05-14T13:09:11.732Z,24.08
2018-05-14T13:11:45.526Z,23.45
2018-05-14T13:14:19.267Z,25.60
2018-05-14T13:16:53.813Z,26.55
2018-05-14T13:19:27.533Z,25.15
2018-05-14T13:22:01.401Z,26.60
2018-05-14T13:24:35.176Z,25.25
2018-05-14T13:27:09.004Z,26.55
2018-05-14T13:29:43.854Z,27.23
2018-05-14T13:32:17.687Z,26.83
2018-05-14T13:34:51.450Z,26.98
2018-05-14T13:37:25.324Z,27.85
2018-05-14T13:39:59.817Z,26.60
2018-05-14T13:42:33.510Z,27.35
2018-05-14T13:45:07.313Z,27.65
2018-05-14T13:47:41.093Z,28.05
2018-05-14T13:50:14.859Z,26.05
2018-05-14T13:52:48.895Z,26.98
2018-05-14T13:55:23.552Z,28.35
2018-05-14T13:57:57.261Z,27.23
2018-05-14T14:00:31.098Z,30.62
2018-05-14T14:03:05.638Z,26.50
2018-05-14T14:05:40.305Z,28.80
2018-05-14T14:08:14.711Z,30.23
2018-05-14T14:10:48.353Z,29.30
2018-05-14T14:13:22.199Z,32.75
2018-05-14T14:15:56.083Z,32.15
2018-05-14T14:18:29.752Z,28.80
2018-05-14T14:21:03.488Z,35.03
2018-05-14T14:23:37.436Z,30.40
2018-05-14T14:26:11.260Z,30.27
2018-05-14T14:28:44.948Z,32.03
2018-05-14T14:31:18.716Z,32.58
2018-05-14T14:33:52.673Z,29.20
2018-05-14T14:36:26.492Z,30.77
2018-05-14T14:39:00.901Z,30.92
2018-05-14T14:41:34.558Z,31.80
2018-05-14T14:44:08.452Z,32.38
2018-05-14T14:46:43.048Z,31.00
2018-05-14T14:49:16.687Z,28.73
2018-05-14T14:51:51.250Z,31.90
2018-05-14T14:54:25.023Z,28.45
2018-05-14T14:56:58.781Z,29.42
2018-05-14T14:59:32.525Z,29.02
2018-05-14T15:02:07.059Z,28.15
2018-05-14T15:04:40.784Z,34.08
2018-05-14T15:07:14.482Z,29.63
2018-05-14T15:09:49.045Z,29.95
2018-05-14T15:12:22.869Z,31.37
2018-05-14T15:14:56.733Z,28.92
2018-05-14T15:17:30.659Z,29.75
2018-05-14T15:20:05.102Z,31.12
2018-05-14T15:22:39.057Z,28.05
2018-05-14T15:25:12.862Z,32.92
2018-05-14T15:27:46.534Z,29.92
2018-05-14T15:30:20.270Z,33.33
2018-05-14T15:32:54.046Z,35.63
2018-05-14T15:35:27.830Z,36.38
2018-05-14T15:38:02.359Z,32.38
2018-05-14T15:40:36.101Z,31.10
2018-05-14T15:43:14.141Z,35.90
2018-05-14T15:45:47.828Z,37.75
2018-05-14T15:48:22.360Z,37.97
2018-05-14T15:50:56.245Z,36.55
2018-05-14T15:53:30.025Z,37.08
2018-05-14T15:56:03.809Z,40.22
2018-05-14T15:58:37.532Z,37.50
2018-05-14T16:01:11.287Z,35.15
2018-05-14T16:03:45.153Z,39.95
2018-05-14T16:06:19.552Z,42.80
2018-05-14T16:08:54.128Z,36.53
2018-05-14T16:11:27.760Z,39.50
2018-05-14T16:14:01.445Z,46.90
2018-05-14T16:16:36.089Z,43.35
2018-05-14T16:19:09.864Z,50.50
2018-05-14T16:21:43.667Z,51.33
2018-05-14T16:24:17.421Z,50.08
2018-05-14T16:26:51.148Z,49.17
2018-05-14T16:29:24.984Z,47.20
2018-05-14T16:31:58.792Z,48.97
2018-05-14T16:34:32.545Z,52.50
2018-05-14T16:37:07.161Z,44.58
2018-05-14T16:39:40.822Z,51.37
2018-05-14T16:42:15.349Z,46.75
2018-05-14T16:44:49.100Z,47.08
2018-05-14T16:47:23.708Z,49.15
2018-05-14T16:49:57.605Z,42.28
2018-05-14T16:52:32.134Z,45.42
2018-05-14T16:55:06.061Z,43.00
2018-05-14T16:57:40.561Z,41.03
2018-05-14T17:00:14.263Z,38.70
2018-05-14T17:02:48.778Z,40.33
2018-05-14T17:05:22.509Z,40.22
2018-05-14T17:07:56.376Z,39.13
2018-05-14T17:10:30.189Z,41.83
2018-05-14T17:13:04.610Z,43.58
2018-05-14T17:15:38.375Z,43.45
2018-05-14T17:18:12.147Z,44.10
2018-05-14T17:20:45.805Z,44.60
2018-05-14T17:23:19.587Z,45.20
2018-05-14T17:25:53.440Z,43.65
2018-05-14T17:28:27.197Z,44.53
2018-05-14T17:31:00.993Z,44.70
2018-05-14T17:33:35.621Z,45.53
2018-05-14T17:36:09.272Z,46.50
2018-05-14T17:38:43.214Z,166.48
2018-05-14T17:41:17.716Z,47.15
2018-05-14T17:43:51.460Z,48.08
2018-05-14T17:46:25.978Z,50.90
2018-05-14T17:48:59.752Z,47.42
2018-05-14T17:51:33.358Z,49.38
2018-05-14T17:54:07.168Z,48.80
2018-05-14T17:56:41.001Z,48.35
2018-05-14T17:59:15.467Z,49.25
2018-05-14T18:01:50.208Z,48.83
2018-05-14T18:04:24.041Z,48.80
2018-05-14T18:06:57.891Z,42.20
2018-05-14T18:09:31.697Z,48.65
2018-05-14T18:12:05.603Z,44.85
2018-05-14T18:14:39.312Z,47.90
2018-05-14T18:17:13.172Z,46.83
2018-05-14T18:19:52.653Z,40.75
2018-05-14T18:22:41.354Z,43.67
2018-05-14T18:25:20.588Z,41.50
2018-05-14T18:28:00.096Z,39.30
2018-05-14T18:30:38.882Z,40.05
2018-05-14T18:33:12.672Z,38.20
2018-05-14T18:35:51.035Z,40.38
2018-05-14T18:38:25.581Z,35.47
2018-05-14T18:40:59.282Z,36.25
2018-05-14T18:43:32.920Z,38.58
2018-05-14T18:46:07.438Z,36.15
2018-05-14T18:48:41.257Z,36.95
2018-05-14T18:51:14.946Z,37.85
2018-05-14T18:53:48.797Z,38.55
2018-05-14T18:56:23.357Z,40.97
2018-05-14T18:58:57.076Z,37.75
2018-05-14T19:01:31.690Z,40.03
2018-05-14T19:04:05.233Z,39.85
2018-05-14T19:06:39.076Z,37.72
2018-05-14T19:09:12.873Z,37.00
2018-05-14T19:11:51.581Z,40.72
2018-05-14T19:14:25.300Z,39.42
2018-05-14T19:17:04.899Z,37.83
2018-05-14T19:19:38.645Z,42.08
2018-05-14T19:22:18.201Z,39.88
2018-05-14T19:24:52.025Z,37.45
2018-05-14T19:27:25.827Z,39.20
2018-05-14T19:29:59.564Z,40.83
2018-05-14T19:32:33.412Z,44.72
2018-05-14T19:35:12.777Z,38.42
2018-05-14T19:37:46.641Z,44.33
2018-05-14T19:57:34.836Z,46.85
2018-05-14T20:00:09.438Z,41.08
2018-05-14T20:02:43.980Z,40.78
2018-05-14T20:05:17.592Z,39.97
2018-05-14T20:07:51.430Z,41.22
2018-05-14T20:10:25.903Z,46.55
2018-05-14T20:13:00.587Z,44.92
2018-05-14T20:15:35.118Z,40.70
2018-05-14T20:18:08.860Z,40.55
2018-05-14T20:20:42.663Z,40.12
2018-05-14T20:23:16.371Z,42.35
2018-05-14T20:25:50.173Z,41.88
2018-05-14T20:28:23.923Z,41.92
2018-05-14T20:30:58.436Z,42.78
2018-05-14T20:33:32.139Z,41.92
2018-05-14T20:36:06.020Z,43.55
2018-05-14T20:38:40.524Z,42.47
2018-05-14T20:41:14.420Z,40.72
2018-05-14T20:43:48.217Z,42.47
2018-05-14T20:46:22.004Z,39.38
2018-05-14T20:48:55.723Z,40.72
2018-05-14T20:51:29.496Z,43.20
2018-05-14T20:54:03.333Z,38.97
2018-05-14T20:56:37.062Z,40.22
2018-05-14T20:59:10.888Z,44.65
2018-05-14T21:01:44.636Z,46.53
2018-05-14T21:04:18.498Z,44.42
2018-05-14T21:06:53.004Z,43.33
2018-05-14T21:09:27.492Z,39.60
2018-05-14T21:12:01.336Z,43.60
2018-05-14T21:14:35.152Z,43.28
2018-05-14T21:17:08.977Z,45.28
2018-05-14T21:19:43.403Z,42.08
2018-05-14T21:22:17.795Z,40.47
2018-05-14T21:24:51.424Z,42.65
2018-05-14T21:27:25.189Z,43.78
2018-05-14T21:29:59.000Z,42.40
2018-05-14T21:32:33.559Z,44.95
2018-05-14T21:35:07.332Z,42.40
2018-05-14T21:37:41.222Z,44.70
2018-05-14T21:40:14.914Z,43.95
2018-05-14T21:42:49.400Z,46.75
2018-05-14T21:45:23.238Z,42.00
2018-05-14T21:47:58.608Z,42.13
2018-05-14T21:50:32.295Z,42.50
2018-05-14T21:53:06.062Z,44.25
2018-05-14T21:55:39.854Z,42.70
2018-05-14T21:58:14.489Z,36.95
2018-05-14T22:00:48.877Z,39.83
2018-05-14T22:03:22.476Z,41.67
2018-05-14T22:05:58.253Z,41.20
2018-05-14T22:08:31.935Z,42.72
2018-05-14T22:11:05.729Z,43.40
2018-05-14T22:13:39.540Z,43.25
2018-05-14T22:16:13.404Z,42.17
2018-05-14T22:18:48.003Z,40.47
2018-05-14T22:21:22.528Z,40.65
2018-05-14T22:23:57.024Z,39.08
2018-05-14T22:26:30.866Z,36.58
2018-05-14T22:29:04.655Z,43.33
2018-05-14T22:31:38.519Z,37.53
2018-05-14T22:34:12.257Z,34.22
2018-05-14T22:36:45.971Z,35.15
2018-05-14T22:39:19.804Z,35.05
2018-05-14T22:41:53.481Z,35.78
2018-05-14T22:44:27.310Z,34.47
2018-05-14T22:47:01.097Z,34.45
2018-05-14T22:49:35.588Z,35.05
2018-05-14T22:52:09.203Z,36.00
2018-05-14T22:54:42.973Z,34.22
2018-05-14T22:57:16.718Z,34.15
2018-05-14T22:59:51.226Z,35.45
2018-05-14T23:02:25.795Z,34.25
2018-05-14T23:04:59.625Z,33.40
2018-05-14T23:07:33.307Z,35.38
2018-05-14T23:10:07.039Z,34.97
2018-05-14T23:12:40.675Z,36.42
2018-05-14T23:15:14.503Z,37.80
2018-05-14T23:17:48.180Z,36.25
2018-05-14T23:20:22.701Z,33.90
2018-05-14T23:22:56.410Z,36.83
2018-05-14T23:25:30.142Z,37.70
2018-05-14T23:28:03.857Z,37.15
2018-05-14T23:30:38.436Z,36.03
2018-05-14T23:33:12.137Z,35.10
2018-05-14T23:35:46.000Z,36.33
2018-05-14T23:38:19.863Z,38.08
2018-05-14T23:40:53.713Z,36.08
2018-05-14T23:43:27.598Z,34.65
2018-05-14T23:46:02.024Z,37.38
2018-05-14T23:48:35.618Z,35.70
2018-05-14T23:51:09.496Z,39.20
2018-05-14T23:53:43.235Z,40.25
2018-05-14T23:56:17.058Z,42.78
2018-05-14T23:58:50.815Z,37.83
